Time;durP1;ratioP1;P1;durP2;ratioP2;P2;SDS_P1;SDS_P2;PMS_P1;PMS_P2;Temp;Humidity;BMP_temperature;BMP_pressure;BME280_temperature;BME280_humidity;BME280_pressure;Samples;Min_cycle;Max_cycle;Signal;HPM_P1;HPM_P2
2021/04/03 00:04:16;;;;;;;35.50;20.05;;;;;;;7.95;49.41;98704.66;258425;1116;114461;-74
2021/04/03 00:09:19;;;;;;;35.03;20.18;;;;;;;7.93;48.84;98685.33;257391;1116;115229;-74
2021/04/03 00:14:22;;;;;;;42.60;20.75;;;;;;;7.91;49.11;98689.84;256976;1116;114741;-74
2021/04/03 00:19:24;;;;;;;42.25;23.00;;;;;;;7.90;49.22;98689.95;258609;1116;114409;-69
2021/04/03 00:24:27;;;;;;;39.78;22.58;;;;;;;7.87;49.23;98682.17;258312;1116;114517;-74
2021/04/03 00:29:30;;;;;;;41.55;21.98;;;;;;;7.82;49.06;98677.99;258585;1116;114146;-69
2021/04/03 00:34:33;;;;;;;43.38;23.73;;;;;;;7.78;49.23;98659.72;257380;1116;114620;-70
2021/04/03 00:39:36;;;;;;;48.53;26.05;;;;;;;7.76;48.80;98656.30;258315;1116;114611;-70
2021/04/03 00:44:39;;;;;;;53.78;29.33;;;;;;;7.74;49.50;98652.86;258279;1116;114577;-76
2021/04/03 00:49:43;;;;;;;59.55;31.10;;;;;;;7.66;49.32;98650.66;258363;1116;114614;-67
2021/04/03 00:54:46;;;;;;;60.53;31.58;;;;;;;7.63;50.09;98650.83;258278;1116;114805;-68
2021/04/03 00:59:51;;;;;;;62.50;33.33;;;;;;;7.57;50.26;98637.92;258387;1116;115159;-68
2021/04/03 01:04:54;;;;;;;60.93;35.20;;;;;;;7.48;50.63;98635.81;258316;1116;114909;-69
2021/04/03 01:09:58;;;;;;;63.05;37.90;;;;;;;7.44;50.83;98651.02;258340;1116;114768;-68
2021/04/03 01:15:09;;;;;;;70.48;39.08;;;;;;;7.48;51.42;98635.81;258370;1116;114505;-69
2021/04/03 01:20:28;;;;;;;73.88;36.58;;;;;;;7.41;51.78;98630.01;258340;1114;114660;-69
2021/04/03 01:25:32;;;;;;;71.50;38.63;;;;;;;7.40;51.14;98638.02;256484;1114;114604;-73
2021/04/03 01:30:37;;;;;;;66.90;37.58;;;;;;;7.40;51.94;98632.72;258326;1114;114778;-74
2021/04/03 01:35:47;;;;;;;70.33;38.38;;;;;;;7.42;51.34;98638.80;258395;1116;114671;-74
2021/04/03 01:40:56;;;;;;;65.43;37.75;;;;;;;7.42;51.71;98628.21;258451;1114;114464;-74
2021/04/03 01:46:00;;;;;;;66.35;36.53;;;;;;;7.41;52.22;98623.87;258163;1116;114414;-74
2021/04/03 01:51:05;;;;;;;61.17;34.87;;;;;;;7.38;51.98;98626.68;257127;1115;115237;-74
2021/04/03 01:56:10;;;;;;;61.85;35.33;;;;;;;7.33;51.58;98637.50;258373;1116;114682;-74
2021/04/03 02:01:16;;;;;;;66.95;33.55;;;;;;;7.33;52.12;98633.06;256211;1116;114648;-74
2021/04/03 02:06:21;;;;;;;61.63;35.00;;;;;;;7.27;52.34;98632.58;257855;1116;115052;-76
2021/04/03 02:11:25;;;;;;;63.45;34.90;;;;;;;7.24;51.75;98630.94;258319;1114;115432;-73
2021/04/03 02:16:33;;;;;;;63.75;36.10;;;;;;;7.16;52.46;98622.55;252686;1116;115002;-75
2021/04/03 02:21:38;;;;;;;63.35;36.55;;;;;;;7.08;52.52;98628.27;258390;1116;114893;-75
2021/04/03 02:26:41;;;;;;;67.80;37.45;;;;;;;7.04;52.49;98637.31;257126;1116;115179;-74
2021/04/03 02:31:45;;;;;;;66.90;39.58;;;;;;;7.01;53.53;98628.69;258471;1114;114783;-74
2021/04/03 02:36:48;;;;;;;64.83;37.00;;;;;;;6.96;52.69;98617.48;257814;1116;114933;-77
2021/04/03 02:42:13;;;;;;;64.95;36.63;;;;;;;6.87;52.74;98614.41;256707;1116;115300;-76
2021/04/03 02:47:22;;;;;;;61.63;34.47;;;;;;;6.77;53.18;98605.27;255161;1116;115394;-74
2021/04/03 02:52:27;;;;;;;63.75;34.03;;;;;;;6.74;53.54;98602.78;258397;1115;114911;-74
2021/04/03 02:57:32;;;;;;;63.15;34.90;;;;;;;6.69;52.78;98604.84;253763;1116;115134;-75
2021/04/03 03:02:36;;;;;;;56.30;32.08;;;;;;;6.67;53.40;98601.41;258246;1116;115186;-70
2021/04/03 03:07:43;;;;;;;59.57;32.40;;;;;;;6.64;52.93;98594.48;258316;1114;114732;-70
2021/04/03 03:12:51;;;;;;;64.33;31.15;;;;;;;6.63;53.27;98591.94;258384;1116;115378;-76
2021/04/03 03:17:57;;;;;;;56.28;31.68;;;;;;;6.62;53.34;98598.14;257730;1116;115013;-76
2021/04/03 03:23:00;;;;;;;;;;;;;;;6.59;53.36;98607.11;255767;1114;114942;-77
2021/04/03 03:28:05;;;;;;;53.88;31.10;;;;;;;6.54;53.37;98610.92;257531;1116;103035;-75
2021/04/03 03:33:09;;;;;;;62.35;33.03;;;;;;;6.52;53.09;98602.20;258393;1114;114895;-75
2021/04/03 03:38:13;;;;;;;55.88;31.13;;;;;;;6.54;53.84;98600.34;256028;1116;114986;-75
2021/04/03 03:43:17;;;;;;;59.93;33.83;;;;;;;6.52;54.07;98592.51;258365;1116;115153;-75
2021/04/03 03:48:24;;;;;;;61.28;33.53;;;;;;;6.50;54.20;98589.08;258372;1116;115225;-75
2021/04/03 03:53:27;;;;;;;60.80;33.93;;;;;;;6.48;53.58;98590.94;258287;1116;115190;-71
2021/04/03 03:58:31;;;;;;;62.08;33.30;;;;;;;6.50;54.44;98590.88;258335;1115;115157;-70
2021/04/03 04:03:34;;;;;;;56.03;32.75;;;;;;;6.48;54.23;98577.72;258241;1116;115003;-70
2021/04/03 04:08:43;;;;;;;55.25;31.98;;;;;;;6.45;54.57;98569.95;258348;1116;114734;-70
2021/04/03 04:13:49;;;;;;;60.45;32.78;;;;;;;6.44;53.80;98572.69;258397;1114;114467;-70
2021/04/03 04:18:57;;;;;;;61.95;33.55;;;;;;;6.44;54.38;98570.89;258249;1116;114634;-71
2021/04/03 04:24:00;;;;;;;61.15;35.53;;;;;;;6.44;53.97;98572.69;258382;1114;115167;-71
2021/04/03 04:29:04;;;;;;;67.73;36.88;;;;;;;6.45;55.00;98575.23;258335;1116;115226;-71
2021/04/03 04:34:07;;;;;;;66.20;37.00;;;;;;;6.44;54.56;98583.26;258144;1116;115491;-69
2021/04/03 04:39:11;;;;;;;66.80;38.58;;;;;;;6.43;55.04;98585.05;258366;1116;114629;-76
2021/04/03 04:44:18;;;;;;;74.58;40.58;;;;;;;6.42;54.80;98582.47;258377;1116;114729;-76
2021/04/03 04:49:22;;;;;;;68.73;41.28;;;;;;;6.37;55.14;98580.08;256749;1116;115013;-79
2021/04/03 04:54:25;;;;;;;69.20;39.35;;;;;;;6.27;54.58;98584.98;256912;1116;114777;-71
2021/04/03 04:59:29;;;;;;;69.53;40.83;;;;;;;6.21;55.27;98587.94;258272;1116;115481;-70
2021/04/03 05:04:41;;;;;;;67.20;39.58;;;;;;;6.21;55.12;98590.59;258291;1116;115003;-70
2021/04/03 05:09:44;;;;;;;74.33;41.20;;;;;;;6.23;55.17;98606.38;258368;1116;114892;-76
2021/04/03 05:14:48;;;;;;;67.33;39.55;;;;;;;6.26;55.80;98606.22;258417;1116;115397;-75
2021/04/03 05:19:51;;;;;;;68.98;38.88;;;;;;;6.27;55.54;98614.05;258383;1116;114843;-75
2021/04/03 05:24:53;;;;;;;68.48;40.05;;;;;;;6.35;55.96;98629.51;258148;1114;114776;-75
2021/04/03 05:29:56;;;;;;;64.63;36.75;;;;;;;6.38;55.61;98632.00;256355;1116;114829;-73
2021/04/03 05:34:59;;;;;;;64.73;35.68;;;;;;;6.46;55.91;98634.27;258299;1114;114825;-74
2021/04/03 05:40:02;;;;;;;63.45;36.50;;;;;;;6.49;55.72;98639.37;258390;1116;114859;-73
2021/04/03 05:45:06;;;;;;;58.93;34.40;;;;;;;6.49;55.76;98650.82;256593;1116;115033;-74
2021/04/03 05:50:10;;;;;;;56.73;33.85;;;;;;;6.53;56.03;98659.45;257977;1114;115140;-75
2021/04/03 05:55:13;;;;;;;56.48;31.53;;;;;;;6.55;56.49;98663.70;258366;1116;115319;-69
2021/04/03 06:00:17;;;;;;;56.13;31.83;;;;;;;6.61;56.21;98667.82;258363;1116;115059;-69
2021/04/03 06:05:20;;;;;;;52.20;30.53;;;;;;;6.66;56.34;98671.09;258372;1116;114926;-69
2021/04/03 06:10:23;;;;;;;50.83;29.13;;;;;;;6.76;56.45;98677.61;258333;1116;115642;-69
2021/04/03 06:15:28;;;;;;;49.60;27.10;;;;;;;6.88;56.03;98673.45;258378;1116;115262;-75
2021/04/03 06:20:34;;;;;;;44.20;25.73;;;;;;;7.00;56.24;98672.81;258333;1116;115066;-75
2021/04/03 06:25:57;;;;;;;41.13;24.00;;;;;;;7.09;56.54;98682.88;258014;1117;115099;-70
2021/04/03 06:31:14;;;;;;;35.33;21.15;;;;;;;7.18;55.99;98681.55;258352;1116;114693;-70
2021/04/03 06:36:18;;;;;;;38.40;23.08;;;;;;;7.25;56.51;98692.66;258380;1116;114808;-70
2021/04/03 06:41:23;;;;;;;41.93;24.28;;;;;;;7.32;56.22;98697.53;258273;1116;114871;-70
2021/04/03 06:46:26;;;;;;;38.45;23.25;;;;;;;7.35;56.41;98701.81;258257;1116;115002;-70
2021/04/03 06:51:30;;;;;;;35.78;21.68;;;;;;;7.37;56.52;98701.72;258203;1114;114682;-70
2021/04/03 06:56:34;;;;;;;36.65;22.85;;;;;;;7.34;55.97;98706.25;258399;1116;114767;-70
2021/04/03 07:01:51;;;;;;;39.43;22.18;;;;;;;7.33;56.36;98701.88;258304;1116;114715;-76
2021/04/03 07:06:55;;;;;;;38.23;21.55;;;;;;;7.32;56.28;98710.77;258338;1114;115058;-76
2021/04/03 07:11:59;;;;;;;36.58;22.68;;;;;;;7.32;56.73;98718.70;258424;1116;114745;-76
2021/04/03 07:17:03;;;;;;;30.80;20.03;;;;;;;7.31;56.14;98729.39;258327;1116;115566;-76
2021/04/03 07:22:06;;;;;;;32.05;19.83;;;;;;;7.23;57.03;98727.13;258324;1116;114745;-76
2021/04/03 07:27:09;;;;;;;31.48;19.95;;;;;;;7.14;56.87;98740.88;258372;1114;114784;-76
2021/04/03 07:32:32;;;;;;;29.05;18.08;;;;;;;7.05;56.85;98747.48;258220;1116;115124;-77
2021/04/03 07:37:35;;;;;;;22.10;15.50;;;;;;;6.95;56.94;98759.48;258262;1115;115805;-70
2021/04/03 07:42:40;;;;;;;23.93;14.68;;;;;;;6.93;57.88;98761.38;258278;1116;114678;-70
2021/04/03 07:47:47;;;;;;;24.75;16.65;;;;;;;6.94;57.82;98767.52;255865;1116;114969;-75
2021/04/03 07:52:55;;;;;;;19.73;14.40;;;;;;;7.00;57.72;98772.50;258207;1116;114988;-69
2021/04/03 07:58:19;;;;;;;20.50;14.53;;;;;;;7.04;58.80;98784.63;258296;1116;114997;-69
2021/04/03 08:03:22;;;;;;;19.33;13.33;;;;;;;7.06;58.34;98785.38;258323;1115;115058;-75
2021/04/03 08:08:26;;;;;;;17.13;12.08;;;;;;;7.11;58.04;98786.02;258268;1116;115004;-75
2021/04/03 08:13:31;;;;;;;15.25;10.38;;;;;;;7.15;58.14;98792.00;257813;1116;115235;-77
2021/04/03 08:18:37;;;;;;;14.25;10.05;;;;;;;7.07;58.63;98792.41;258329;1116;114682;-76
2021/04/03 08:23:41;;;;;;;;;;;;;;;7.10;58.84;98792.25;258210;1116;115316;-76
2021/04/03 08:28:44;;;;;;;13.00;8.63;;;;;;;7.17;58.73;98804.23;258350;1114;102404;-71
2021/04/03 08:33:50;;;;;;;9.53;7.00;;;;;;;7.32;58.55;98797.27;258168;1116;115016;-71
2021/04/03 08:38:57;;;;;;;8.47;6.73;;;;;;;7.41;58.26;98802.08;258308;1116;115118;-69
2021/04/03 08:44:00;;;;;;;8.08;6.65;;;;;;;7.45;57.98;98794.83;258400;1116;114703;-75
2021/04/03 08:49:03;;;;;;;9.65;6.43;;;;;;;7.50;58.18;98796.28;258361;1117;114380;-75
2021/04/03 08:54:06;;;;;;;13.30;7.20;;;;;;;7.61;58.44;98795.73;258333;1114;115157;-75
2021/04/03 08:59:14;;;;;;;9.63;7.10;;;;;;;7.65;57.39;98805.21;258293;1117;114628;-76
2021/04/03 09:04:19;;;;;;;11.00;7.75;;;;;;;7.61;57.17;98808.97;258293;1115;114769;-75
2021/04/03 09:09:25;;;;;;;13.98;9.08;;;;;;;7.58;56.92;98801.19;258345;1116;114969;-76
2021/04/03 09:14:53;;;;;;;11.83;8.08;;;;;;;7.57;57.80;98805.63;258477;1116;114965;-75
2021/04/03 09:20:08;;;;;;;12.90;9.05;;;;;;;7.63;57.18;98809.72;258366;1114;114657;-76
2021/04/03 09:25:13;;;;;;;13.05;7.80;;;;;;;7.66;57.85;98806.91;258302;1116;116381;-76
2021/04/03 09:30:16;;;;;;;14.55;9.28;;;;;;;7.71;57.66;98810.19;258188;1114;114864;-77
2021/04/03 09:35:24;;;;;;;13.78;8.98;;;;;;;7.79;56.98;98810.61;258293;1116;114583;-75
2021/04/03 09:40:34;;;;;;;18.23;9.97;;;;;;;7.82;57.11;98806.95;254937;1115;114799;-75
2021/04/03 09:45:37;;;;;;;16.53;10.23;;;;;;;7.76;56.85;98818.72;257258;1116;114636;-76
2021/04/03 09:50:41;;;;;;;17.60;10.63;;;;;;;7.76;56.30;98820.52;258400;1115;114781;-71
2021/04/03 09:55:44;;;;;;;19.10;11.18;;;;;;;7.75;56.28;98826.77;258294;1116;116004;-70
2021/04/03 10:00:47;;;;;;;17.30;11.43;;;;;;;7.73;56.63;98823.33;258309;1115;115078;-70
2021/04/03 10:05:50;;;;;;;14.10;10.53;;;;;;;7.71;56.33;98825.19;258303;1116;115306;-69
2021/04/03 10:10:56;;;;;;;14.55;10.30;;;;;;;7.76;55.86;98824.02;258380;1115;115234;-75
2021/04/03 10:15:58;;;;;;;18.60;11.08;;;;;;;7.88;56.01;98813.69;258172;1114;115222;-71
2021/04/03 10:21:01;;;;;;;19.58;12.00;;;;;;;8.04;55.70;98814.56;258206;1116;115049;-71
2021/04/03 10:26:04;;;;;;;18.10;10.20;;;;;;;8.16;55.99;98813.89;258432;1116;114899;-71
2021/04/03 10:31:07;;;;;;;15.55;9.23;;;;;;;8.32;55.28;98818.31;258264;1116;114751;-71
2021/04/03 10:36:10;;;;;;;;;;;;;;;8.37;54.93;98817.13;258132;1114;115503;-74
2021/04/03 10:41:14;;;;;;;16.85;11.38;;;;;;;8.42;54.93;98817.73;258358;1116;100930;-73
2021/04/03 10:46:16;;;;;;;16.65;10.53;;;;;;;8.45;54.63;98822.02;258254;1116;115332;-72
2021/04/03 10:51:19;;;;;;;15.53;9.33;;;;;;;8.54;54.43;98826.81;258205;1116;114874;-73
2021/04/03 10:56:22;;;;;;;13.58;9.70;;;;;;;8.55;53.76;98822.35;258173;1116;115637;-74
2021/04/03 11:01:25;;;;;;;17.63;9.88;;;;;;;8.62;53.90;98813.09;258237;1116;115740;-78
2021/04/03 11:06:27;;;;;;;15.35;10.25;;;;;;;8.66;53.68;98830.54;258201;1116;114468;-76
2021/04/03 11:11:31;;;;;;;13.33;8.75;;;;;;;8.68;53.98;98824.21;258371;1116;114841;-77
2021/04/03 11:16:33;;;;;;;12.98;8.70;;;;;;;8.68;53.64;98836.63;258321;1116;114597;-79
2021/04/03 11:21:36;;;;;;;13.18;9.95;;;;;;;8.64;53.90;98835.09;258315;1116;114610;-82
2021/04/03 11:26:39;;;;;;;15.58;11.25;;;;;;;8.61;54.15;98837.92;258240;1116;114600;-77
2021/04/03 11:31:42;;;;;;;18.35;13.20;;;;;;;8.52;54.26;98858.73;256495;1116;115602;-79
2021/04/03 11:36:45;;;;;;;13.28;8.85;;;;;;;8.37;53.97;98870.16;258148;1114;115054;-78
2021/04/03 11:41:48;;;;;;;11.68;9.40;;;;;;;8.16;54.85;98877.50;258239;1116;115688;-79
2021/04/03 11:46:51;;;;;;;9.45;6.80;;;;;;;7.99;54.94;98881.07;258250;1114;114787;-79
2021/04/03 11:51:54;;;;;;;3.97;2.90;;;;;;;7.84;55.62;98887.17;257244;1116;114641;-78
2021/04/03 11:56:57;;;;;;;5.18;3.55;;;;;;;7.69;55.88;98888.86;255482;1115;114529;-83
2021/04/03 12:01:59;;;;;;;6.45;2.53;;;;;;;7.72;56.82;98891.34;254594;1116;114398;-72
2021/04/03 12:07:04;;;;;;;4.10;2.43;;;;;;;7.74;56.74;98892.10;255068;1116;114736;-72
2021/04/03 12:12:08;;;;;;;3.25;2.48;;;;;;;7.77;56.75;98896.39;258164;1114;115077;-77
2021/04/03 12:17:10;;;;;;;2.40;1.88;;;;;;;7.83;56.35;98893.42;255094;1116;114522;-78
2021/04/03 12:22:13;;;;;;;5.80;2.00;;;;;;;7.90;56.68;98902.75;251187;1116;114423;-75
2021/04/03 12:27:16;;;;;;;4.70;2.60;;;;;;;7.92;56.42;98905.34;253417;1116;114639;-75
2021/04/03 12:32:18;;;;;;;46.13;22.97;;;;;;;8.92;61.87;98911.30;253358;1116;114995;-70
2021/04/03 12:37:21;;;;;;;16.10;10.00;;;;;;;10.62;60.95;98907.16;255104;1116;115374;-69
2021/04/03 12:42:24;;;;;;;12.43;8.00;;;;;;;11.74;58.57;98906.84;255094;1116;115714;-70
2021/04/03 12:47:27;;;;;;;14.10;9.40;;;;;;;12.16;56.34;98900.38;258235;1116;115113;-89
2021/04/03 12:52:30;;;;;;;5.28;3.70;;;;;;;11.74;53.30;98896.17;256816;1116;115602;-87
2021/04/03 12:57:34;;;;;;;4.90;3.95;;;;;;;11.02;52.12;98909.89;253854;1116;114846;-85
2021/04/03 13:02:37;;;;;;;4.05;3.48;;;;;;;10.33;51.79;98910.84;256144;1116;115658;-86
2021/04/03 13:07:40;;;;;;;5.35;3.75;;;;;;;9.78;51.91;98911.54;258087;1116;114681;-86
2021/04/03 13:12:43;;;;;;;5.68;3.63;;;;;;;9.43;52.22;98917.17;256558;1116;114385;-84
2021/04/03 13:17:47;;;;;;;5.73;3.70;;;;;;;9.24;52.63;98918.27;252981;1116;114893;-82
2021/04/03 13:22:50;;;;;;;7.10;3.77;;;;;;;9.13;52.84;98914.52;255883;1116;115165;-82
2021/04/03 13:27:53;;;;;;;6.00;4.25;;;;;;;9.07;52.64;98906.90;255790;1116;115033;-82
2021/04/03 13:32:56;;;;;;;5.97;4.20;;;;;;;9.22;53.39;98916.64;256035;1116;114290;-82
2021/04/03 13:37:59;;;;;;;6.50;4.43;;;;;;;9.67;53.81;98913.05;255044;1114;114282;-81
2021/04/03 13:43:03;;;;;;;8.73;5.33;;;;;;;9.76;52.96;98919.62;256421;1116;114754;-82
2021/04/03 13:48:07;;;;;;;6.13;5.13;;;;;;;9.71;52.46;98914.59;258266;1116;114671;-82
2021/04/03 13:53:10;;;;;;;7.00;5.03;;;;;;;9.67;52.31;98906.88;258315;1114;114774;-81
2021/04/03 13:58:21;;;;;;;10.40;6.13;;;;;;;9.57;51.48;98922.52;256303;1114;114796;-80
2021/04/03 14:03:23;;;;;;;10.20;6.08;;;;;;;9.57;51.66;98935.80;258199;1115;114919;-80
2021/04/03 14:08:26;;;;;;;9.30;5.58;;;;;;;9.49;50.86;98935.41;258342;1114;114985;-79
2021/04/03 14:13:30;;;;;;;9.00;6.23;;;;;;;9.33;50.66;98937.25;255196;1116;115549;-79
2021/04/03 14:18:35;;;;;;;7.73;6.15;;;;;;;9.17;50.43;98939.94;257867;1115;114215;-78
2021/04/03 14:23:38;;;;;;;12.08;6.60;;;;;;;9.09;50.99;98936.88;256545;1116;114705;-76
2021/04/03 14:28:41;;;;;;;9.20;6.63;;;;;;;9.06;51.25;98947.67;255045;1116;114593;-71
2021/04/03 14:33:45;;;;;;;12.93;7.20;;;;;;;9.07;50.76;98944.06;254525;1116;114975;-72
2021/04/03 14:38:48;;;;;;;9.77;7.73;;;;;;;9.10;50.48;98935.92;252918;1116;115819;-73
2021/04/03 14:43:54;;;;;;;9.98;7.00;;;;;;;9.12;49.84;98944.67;256419;1116;114624;-74
2021/04/03 14:48:58;;;;;;;9.30;6.73;;;;;;;9.12;50.39;98947.33;254564;1116;114500;-74
2021/04/03 14:54:00;;;;;;;9.35;6.60;;;;;;;9.13;50.03;98933.95;257267;1116;114779;-75
2021/04/03 14:59:03;;;;;;;9.80;7.20;;;;;;;9.23;50.42;98943.09;253802;1116;115227;-78
2021/04/03 15:04:06;;;;;;;10.50;7.90;;;;;;;9.35;50.43;98936.23;252648;1117;114512;-79
2021/04/03 15:09:09;;;;;;;9.30;5.70;;;;;;;9.38;50.40;98943.17;253849;1117;114813;-80
2021/04/03 15:14:12;;;;;;;8.87;5.67;;;;;;;9.34;49.92;98936.30;250772;1116;114188;-77
2021/04/03 15:19:15;;;;;;;8.93;4.87;;;;;;;9.28;49.98;98940.19;254443;1116;115443;-75
2021/04/03 15:24:18;;;;;;;6.63;3.53;;;;;;;9.27;49.69;98942.92;254261;1114;114793;-79
2021/04/03 15:29:20;;;;;;;5.80;3.47;;;;;;;9.23;49.09;98945.75;257135;1116;114372;-78
2021/04/03 15:34:23;;;;;;;6.35;3.45;;;;;;;9.22;49.27;98943.20;257831;1109;114348;-76
2021/04/03 15:39:26;;;;;;;6.25;3.50;;;;;;;9.21;49.29;98950.31;254512;1116;114743;-78
2021/04/03 15:44:29;;;;;;;5.70;3.60;;;;;;;9.21;49.41;98957.42;253666;1116;115108;-80
2021/04/03 15:49:31;;;;;;;5.70;3.58;;;;;;;9.19;48.94;98953.99;256920;1116;114959;-79
2021/04/03 15:54:36;;;;;;;8.80;4.05;;;;;;;9.20;48.95;98956.58;258320;1116;114864;-80
2021/04/03 15:59:39;;;;;;;8.38;4.40;;;;;;;9.20;49.02;98958.34;258303;1115;114747;-80
2021/04/03 16:04:42;;;;;;;8.27;4.50;;;;;;;9.16;48.78;98962.13;256909;1116;114927;-80
2021/04/03 16:09:45;;;;;;;8.30;4.13;;;;;;;9.15;48.68;98960.42;255781;1115;114614;-74
2021/04/03 16:14:48;;;;;;;8.98;3.70;;;;;;;9.12;48.47;98969.42;258322;1115;115336;-74
2021/04/03 16:19:50;;;;;;;5.60;3.48;;;;;;;9.08;48.79;98967.89;258271;1116;114502;-74
2021/04/03 16:24:53;;;;;;;7.50;3.73;;;;;;;9.05;48.95;98967.20;258327;1109;114362;-75
2021/04/03 16:29:57;;;;;;;6.70;4.13;;;;;;;9.02;48.59;98985.95;258396;1116;114291;-75
2021/04/03 16:35:02;;;;;;;5.28;2.83;;;;;;;8.95;49.04;98998.72;258234;1116;114482;-75
2021/04/03 16:40:06;;;;;;;5.35;3.10;;;;;;;8.73;49.18;99023.80;258371;1116;114524;-75
2021/04/03 16:45:10;;;;;;;5.40;3.30;;;;;;;8.47;49.78;99027.00;258318;1116;114515;-79
2021/04/03 16:50:14;;;;;;;5.53;2.65;;;;;;;8.22;49.67;99041.53;257085;1116;114747;-80
2021/04/03 16:55:18;;;;;;;6.35;2.90;;;;;;;8.05;50.52;99029.16;258303;1114;114691;-84
2021/04/03 17:00:21;;;;;;;4.00;2.35;;;;;;;7.91;51.04;99022.84;258184;1116;114338;-84
2021/04/03 17:05:24;;;;;;;5.48;2.60;;;;;;;7.79;50.93;99033.13;258265;1116;114383;-84
2021/04/03 17:10:27;;;;;;;4.58;3.03;;;;;;;7.67;51.71;99027.59;258082;1116;114527;-83
2021/04/03 17:15:31;;;;;;;4.25;2.73;;;;;;;7.57;52.16;99027.19;258221;1116;114472;-87
2021/04/03 17:20:34;;;;;;;4.25;2.30;;;;;;;7.50;52.22;99046.97;258193;1116;114441;-88
2021/04/03 17:25:37;;;;;;;4.53;2.78;;;;;;;7.41;51.78;99053.59;258125;1114;114696;-86
2021/04/03 17:30:45;;;;;;;3.93;2.65;;;;;;;7.32;51.63;99057.53;258308;1114;114403;-88
2021/04/03 17:35:51;;;;;;;5.48;3.20;;;;;;;7.26;51.67;99060.47;258188;1116;114294;-86
2021/04/03 17:40:53;;;;;;;4.93;3.45;;;;;;;7.21;52.14;99062.49;258324;1116;114680;-87
2021/04/03 17:45:56;;;;;;;6.05;3.28;;;;;;;7.15;52.73;99073.36;258304;1116;114499;-84
2021/04/03 17:50:59;;;;;;;5.18;2.93;;;;;;;7.09;52.57;99078.94;258296;1116;114793;-84
2021/04/03 17:56:02;;;;;;;5.80;3.35;;;;;;;7.01;53.61;99089.89;258337;1115;114308;-85
2021/04/03 18:01:06;;;;;;;8.23;3.90;;;;;;;6.88;53.19;99094.03;258337;1116;115224;-85
2021/04/03 18:06:09;;;;;;;6.08;3.60;;;;;;;6.79;53.56;99099.73;258222;1116;114820;-89
2021/04/03 18:11:12;;;;;;;7.38;4.68;;;;;;;6.71;54.25;99115.96;258390;1116;114689;-85
2021/04/03 18:16:15;;;;;;;8.38;3.50;;;;;;;6.67;53.80;99124.97;258376;1116;114375;-84
2021/04/03 18:21:18;;;;;;;5.93;3.70;;;;;;;6.63;54.11;99124.25;258277;1116;114332;-78
2021/04/03 18:26:21;;;;;;;6.95;4.00;;;;;;;6.66;54.05;99131.19;258361;1116;114898;-78
2021/04/03 18:31:24;;;;;;;7.18;3.90;;;;;;;6.66;54.59;99128.55;258340;1114;114559;-81
2021/04/03 18:36:26;;;;;;;5.38;3.55;;;;;;;6.66;55.01;99141.77;258261;1116;114528;-79
2021/04/03 18:41:29;;;;;;;8.47;4.27;;;;;;;6.64;54.47;99139.17;258221;1116;114963;-79
2021/04/03 18:46:34;;;;;;;11.10;6.53;;;;;;;6.60;54.70;99139.39;258282;1115;115424;-79
2021/04/03 18:51:37;;;;;;;14.37;7.63;;;;;;;6.60;55.25;99149.97;258319;1114;115182;-80
2021/04/03 18:56:41;;;;;;;20.70;10.28;;;;;;;6.53;54.77;99153.81;258220;1116;114738;-80
2021/04/03 19:01:44;;;;;;;22.35;11.95;;;;;;;6.52;54.04;99160.00;258347;1114;114924;-78
2021/04/03 19:06:47;;;;;;;19.70;10.40;;;;;;;6.49;54.22;99174.23;258155;1115;115132;-79
2021/04/03 19:11:50;;;;;;;21.10;10.20;;;;;;;6.44;53.97;99176.20;258312;1116;114890;-83
2021/04/03 19:16:52;;;;;;;14.90;8.58;;;;;;;6.39;54.48;99171.13;258284;1116;114783;-83
2021/04/03 19:21:56;;;;;;;15.73;9.18;;;;;;;6.33;54.58;99181.95;258312;1116;114883;-87
2021/04/03 19:27:00;;;;;;;12.55;7.30;;;;;;;6.27;54.73;99176.92;258227;1116;115083;-85
2021/04/03 19:32:04;;;;;;;16.73;8.73;;;;;;;6.25;55.35;99185.83;258313;1116;114726;-86
2021/04/03 19:37:07;;;;;;;13.60;7.93;;;;;;;6.20;55.13;99191.31;258254;1114;114560;-82
2021/04/03 19:42:10;;;;;;;15.98;8.63;;;;;;;6.18;55.89;99194.94;258268;1117;114608;-85
2021/04/03 19:47:13;;;;;;;15.78;8.03;;;;;;;6.15;55.25;99201.23;258281;1116;114534;-87
2021/04/03 19:52:16;;;;;;;15.00;7.53;;;;;;;6.15;55.57;99193.31;258356;1116;114727;-85
2021/04/03 19:57:19;;;;;;;13.58;7.70;;;;;;;6.12;55.66;99206.64;258389;1116;114562;-87
2021/04/03 20:02:23;;;;;;;13.38;7.58;;;;;;;6.08;56.08;99219.13;258372;1116;114664;-86
2021/04/03 20:07:25;;;;;;;13.25;7.20;;;;;;;6.04;56.32;99217.50;258340;1116;114533;-84
2021/04/03 20:12:28;;;;;;;13.03;7.53;;;;;;;6.00;55.62;99222.98;258440;1117;114417;-85
2021/04/03 20:17:31;;;;;;;14.03;7.08;;;;;;;5.93;55.70;99225.86;258257;1116;115122;-84
2021/04/03 20:22:35;;;;;;;15.95;7.33;;;;;;;5.91;56.61;99225.05;258319;1117;114637;-85
2021/04/03 20:27:42;;;;;;;14.83;8.18;;;;;;;5.88;55.85;99229.59;258376;1114;114837;-87
2021/04/03 20:32:47;;;;;;;13.73;7.53;;;;;;;5.84;55.81;99233.25;258303;1116;114526;-88
2021/04/03 20:37:50;;;;;;;16.05;9.13;;;;;;;5.80;56.11;99242.23;258223;1116;114856;-88
2021/04/03 20:42:54;;;;;;;19.55;8.45;;;;;;;5.75;56.64;99238.92;258423;1116;114407;-87
2021/04/03 20:47:57;;;;;;;17.75;8.43;;;;;;;5.71;56.93;99248.75;258285;1116;114784;-87
2021/04/03 20:53:00;;;;;;;17.50;9.45;;;;;;;5.65;56.96;99254.26;258243;1116;114667;-86
2021/04/03 20:58:03;;;;;;;14.93;8.75;;;;;;;5.60;56.75;99250.91;258341;1114;114410;-87
2021/04/03 21:03:07;;;;;;;15.45;8.10;;;;;;;5.55;57.28;99256.38;258311;1116;115083;-87
2021/04/03 21:08:12;;;;;;;10.63;6.85;;;;;;;5.48;56.22;99268.09;258130;1116;114627;-85
2021/04/03 21:13:15;;;;;;;14.00;7.20;;;;;;;5.46;57.08;99270.77;258362;1116;114994;-87
2021/04/03 21:18:18;;;;;;;11.80;6.77;;;;;;;5.42;56.87;99260.41;258299;1114;114858;-87
2021/04/03 21:23:21;;;;;;;12.88;7.20;;;;;;;5.39;56.58;99269.28;258406;1116;115215;-88
2021/04/03 21:28:25;;;;;;;13.03;7.58;;;;;;;5.38;57.56;99280.77;258295;1116;115006;-87
2021/04/03 21:33:28;;;;;;;14.90;7.45;;;;;;;5.35;57.23;99272.96;258375;1116;114376;-87
2021/04/03 21:38:33;;;;;;;12.75;7.25;;;;;;;5.33;57.04;99280.09;257687;1116;114690;-88
2021/04/03 21:43:37;;;;;;;10.80;6.45;;;;;;;5.31;57.51;99279.28;258451;1116;114568;-86
2021/04/03 21:48:40;;;;;;;13.53;7.05;;;;;;;5.30;57.17;99290.76;258365;1115;115224;-87
2021/04/03 21:53:43;;;;;;;13.03;6.93;;;;;;;5.29;57.74;99286.38;258341;1116;114643;-87
2021/04/03 21:58:45;;;;;;;13.83;7.10;;;;;;;5.32;57.36;99298.61;258398;1114;114919;-87
2021/04/03 22:03:48;;;;;;;13.65;7.73;;;;;;;5.31;57.74;99296.89;258309;1116;115544;-87
2021/04/03 22:08:53;;;;;;;13.93;7.65;;;;;;;5.33;57.97;99303.84;258342;1116;114775;-85
2021/04/03 22:13:59;;;;;;;11.48;7.15;;;;;;;5.29;57.50;99296.93;258225;1117;114560;-86
2021/04/03 22:19:05;;;;;;;14.28;8.18;;;;;;;5.28;57.63;99302.28;258351;1116;114953;-88
2021/04/03 22:24:10;;;;;;;14.75;8.48;;;;;;;5.26;57.91;99294.40;258366;1114;115003;-86
2021/04/03 22:29:12;;;;;;;14.18;8.33;;;;;;;5.27;58.43;99306.70;258321;1114;114572;-86
2021/04/03 22:34:16;;;;;;;13.00;7.83;;;;;;;5.31;57.99;99307.45;258172;1116;114569;-86
2021/04/03 22:39:19;;;;;;;15.28;8.35;;;;;;;5.33;58.37;99302.95;258345;1116;115264;-86
2021/04/03 22:44:23;;;;;;;14.58;8.10;;;;;;;5.36;58.47;99311.62;258090;1116;114724;-85
2021/04/03 22:49:28;;;;;;;12.98;8.00;;;;;;;5.37;58.37;99308.09;258295;1114;115288;-85
2021/04/03 22:54:31;;;;;;;15.85;9.10;;;;;;;5.39;58.16;99316.79;258376;1116;115034;-85
2021/04/03 22:59:34;;;;;;;14.78;8.80;;;;;;;5.40;58.45;99310.62;258432;1116;114333;-86
2021/04/03 23:04:37;;;;;;;12.95;7.95;;;;;;;5.40;57.88;99310.62;258368;1116;114683;-87
2021/04/03 23:09:41;;;;;;;14.08;8.23;;;;;;;5.41;58.03;99316.75;258348;1116;114601;-85
2021/04/03 23:14:44;;;;;;;13.70;7.60;;;;;;;5.44;58.17;99309.58;258375;1114;115250;-86
2021/04/03 23:19:47;;;;;;;13.38;7.53;;;;;;;5.42;57.66;99306.13;258265;1116;115145;-86